createdAt,value
2019-06-10T00:00:36.382Z,11.23
2019-06-10T00:03:07.198Z,12.30
2019-06-10T00:05:37.446Z,11.73
2019-06-10T00:08:07.172Z,11.10
2019-06-10T00:10:36.536Z,11.50
2019-06-10T00:13:07.332Z,12.40
2019-06-10T00:15:37.377Z,12.50
2019-06-10T00:18:26.640Z,12.40
2019-06-10T00:20:40.640Z,11.30
2019-06-10T00:23:11.691Z,12.77
2019-06-10T00:25:41.336Z,12.97
2019-06-10T00:28:12.339Z,12.40
2019-06-10T00:30:41.800Z,13.17
2019-06-10T00:33:12.613Z,13.43
2019-06-10T00:35:42.168Z,13.07
2019-06-10T00:38:14.285Z,13.23
2019-06-10T00:40:43.312Z,13.80
2019-06-10T00:43:13.556Z,13.20
2019-06-10T00:45:43.546Z,13.67
2019-06-10T00:48:24.766Z,12.80
2019-06-10T00:50:43.972Z,12.90
2019-06-10T00:53:14.530Z,13.60
2019-06-10T00:55:44.014Z,14.10
2019-06-10T00:58:14.119Z,13.43
2019-06-10T01:00:43.734Z,13.73
2019-06-10T01:03:15.082Z,12.97
2019-06-10T01:05:44.134Z,13.63
2019-06-10T01:08:15.689Z,14.47
2019-06-10T01:10:44.585Z,14.00
2019-06-10T01:13:15.536Z,13.47
2019-06-10T01:15:45.002Z,14.87
2019-06-10T01:18:34.175Z,14.20
2019-06-10T01:20:45.847Z,14.10
2019-06-10T01:23:15.748Z,14.23
2019-06-10T01:25:45.224Z,14.30
2019-06-10T01:28:16.808Z,15.10
2019-06-10T01:30:45.661Z,16.03
2019-06-10T01:33:16.412Z,15.30
2019-06-10T01:35:46.238Z,16.33
2019-06-10T01:38:16.336Z,15.27
2019-06-10T01:40:45.851Z,14.40
2019-06-10T01:43:17.388Z,15.13
2019-06-10T01:45:47.446Z,15.97
2019-06-10T01:48:17.940Z,15.40
2019-06-10T01:50:47.451Z,16.50
2019-06-10T01:53:17.637Z,15.77
2019-06-10T01:55:48.058Z,14.97
2019-06-10T01:58:20.775Z,14.80
2019-06-10T02:01:04.485Z,14.83
2019-06-10T02:03:33.856Z,14.63
2019-06-10T02:06:03.255Z,13.73
2019-06-10T02:08:32.631Z,13.00
2019-06-10T02:11:01.987Z,13.80
2019-06-10T02:13:33.499Z,13.47
2019-06-10T02:16:03.412Z,14.13
2019-06-10T02:18:33.642Z,13.30
2019-06-10T02:21:03.069Z,12.73
2019-06-10T02:23:32.432Z,13.30
2019-06-10T02:26:02.128Z,13.07
2019-06-10T02:28:32.077Z,14.53
2019-06-10T02:31:04.025Z,13.70
2019-06-10T02:33:36.321Z,13.17
2019-06-10T02:36:05.192Z,13.27
2019-06-10T02:38:39.421Z,13.47
2019-06-10T02:41:06.872Z,13.73
2019-06-10T02:43:38.137Z,14.70
2019-06-10T02:46:07.527Z,23.80
2019-06-10T02:48:36.905Z,19.93
2019-06-10T02:51:08.178Z,15.30
2019-06-10T02:53:38.040Z,13.50
2019-06-10T02:56:09.099Z,12.93
2019-06-10T02:58:40.015Z,14.47
2019-06-10T03:01:10.299Z,13.67
2019-06-10T03:03:45.577Z,13.10
2019-06-10T03:06:14.468Z,12.57
2019-06-10T03:08:43.635Z,13.73
2019-06-10T03:11:14.151Z,15.77
2019-06-10T03:13:43.682Z,13.73
2019-06-10T03:16:35.260Z,15.40
2019-06-10T03:19:04.730Z,13.00
2019-06-10T03:21:34.121Z,13.73
2019-06-10T03:24:03.780Z,15.50
2019-06-10T03:26:33.421Z,14.80
2019-06-10T03:29:02.914Z,14.17
2019-06-10T03:31:41.098Z,15.87
2019-06-10T03:34:05.363Z,13.27
2019-06-10T03:36:34.964Z,14.13
2019-06-10T03:39:05.784Z,13.90
2019-06-10T03:41:35.118Z,14.40
2019-06-10T03:44:04.676Z,15.10
2019-06-10T03:46:35.555Z,15.23
2019-06-10T03:49:05.685Z,15.03
2019-06-10T03:51:35.042Z,14.77
2019-06-10T03:54:04.423Z,15.80
2019-06-10T03:56:33.796Z,15.03
2019-06-10T03:59:03.141Z,15.70
2019-06-10T04:01:33.337Z,15.47
2019-06-10T04:04:03.233Z,16.70
2019-06-10T04:06:33.694Z,17.33
2019-06-10T04:09:03.873Z,17.13
2019-06-10T04:11:35.475Z,17.33
2019-06-10T04:14:04.467Z,18.63
2019-06-10T04:16:33.825Z,18.90
2019-06-10T04:19:03.202Z,19.90
2019-06-10T04:21:32.963Z,19.27
2019-06-10T04:24:02.536Z,17.07
2019-06-10T04:26:33.095Z,18.20
2019-06-10T04:29:02.720Z,16.27
2019-06-10T04:31:33.031Z,16.90
2019-06-10T04:34:03.239Z,15.40
2019-06-10T04:36:33.276Z,17.17
2019-06-10T04:39:03.375Z,16.27
2019-06-10T04:41:32.827Z,14.80
2019-06-10T04:44:02.920Z,16.50
2019-06-10T04:46:33.161Z,17.77
2019-06-10T04:49:02.951Z,17.83
2019-06-10T04:51:33.224Z,16.07
2019-06-10T04:54:03.451Z,15.80
2019-06-10T04:56:33.531Z,15.17
2019-06-10T04:59:03.376Z,14.07
2019-06-10T05:01:33.738Z,14.20
2019-06-10T05:04:04.887Z,13.10
2019-06-10T05:06:36.383Z,12.70
2019-06-10T05:09:06.303Z,13.37
2019-06-10T05:11:36.853Z,13.13
2019-06-10T05:14:06.377Z,13.43
2019-06-10T05:16:36.179Z,13.13
2019-06-10T05:19:05.615Z,12.87
2019-06-10T05:21:36.221Z,13.57
2019-06-10T05:24:06.107Z,12.60
2019-06-10T05:26:35.811Z,13.00
2019-06-10T05:29:05.172Z,14.37
2019-06-10T05:31:35.275Z,11.05
2019-06-10T05:34:04.773Z,11.28
2019-06-10T05:36:34.648Z,12.33
2019-06-10T05:39:05.842Z,11.38
2019-06-10T05:41:35.349Z,10.63
2019-06-10T05:44:05.096Z,9.13
2019-06-10T05:46:35.128Z,9.33
2019-06-10T05:49:04.658Z,8.35
2019-06-10T05:51:35.394Z,8.18
2019-06-10T05:54:05.036Z,12.85
2019-06-10T05:56:35.673Z,8.83
2019-06-10T05:59:05.150Z,7.90
2019-06-10T06:01:38.337Z,7.80
2019-06-10T06:04:06.619Z,8.65
2019-06-10T06:06:37.503Z,7.85
2019-06-10T06:09:08.928Z,8.13
2019-06-10T06:11:38.337Z,6.78
2019-06-10T06:14:07.794Z,7.03
2019-06-10T06:16:38.344Z,5.15
2019-06-10T06:19:07.740Z,5.37
2019-06-10T06:21:42.694Z,8.55
2019-06-10T06:24:08.366Z,7.47
2019-06-10T06:26:39.678Z,5.17
2019-06-10T06:29:10.111Z,4.92
2019-06-10T06:31:39.511Z,8.60
2019-06-10T06:34:08.955Z,4.78
2019-06-10T06:36:39.314Z,4.75
2019-06-10T06:39:09.453Z,4.33
2019-06-10T06:41:39.212Z,4.33
2019-06-10T06:44:08.808Z,5.50
2019-06-10T06:46:42.942Z,4.87
2019-06-10T06:49:12.831Z,4.78
2019-06-10T06:51:54.924Z,4.55
2019-06-10T06:54:13.528Z,5.50
2019-06-10T06:56:43.735Z,8.55
2019-06-10T06:59:13.568Z,7.80
2019-06-10T07:01:44.294Z,5.90
2019-06-10T07:04:14.172Z,4.85
2019-06-10T07:06:43.987Z,4.50
2019-06-10T07:09:13.854Z,6.60
2019-06-10T07:11:45.351Z,5.10
2019-06-10T07:14:16.327Z,5.37
2019-06-10T07:16:46.863Z,5.33
2019-06-10T07:19:16.434Z,4.03
2019-06-10T07:22:05.391Z,3.80
2019-06-10T07:24:17.416Z,4.03
2019-06-10T07:26:53.981Z,4.00
2019-06-10T07:29:19.339Z,4.55
2019-06-10T07:31:50.343Z,4.50
2019-06-10T07:34:22.121Z,3.92
2019-06-10T07:36:52.206Z,4.90
2019-06-10T07:39:22.710Z,5.22
2019-06-10T07:41:53.094Z,4.10
2019-06-10T07:44:22.948Z,4.10
2019-06-10T07:46:53.285Z,5.95
2019-06-10T07:49:23.873Z,4.75
2019-06-10T07:51:53.453Z,4.83
2019-06-10T07:54:23.205Z,3.83
2019-06-10T07:56:53.770Z,4.58
2019-06-10T07:59:23.490Z,18.98
2019-06-10T08:01:55.115Z,5.08
2019-06-10T08:04:24.776Z,4.78
2019-06-10T08:06:54.138Z,5.35
2019-06-10T08:09:23.528Z,4.75
2019-06-10T08:11:53.378Z,4.33
2019-06-10T08:14:22.796Z,4.10
2019-06-10T08:16:53.312Z,6.05
2019-06-10T08:19:34.444Z,6.22
2019-06-10T08:21:54.683Z,4.92
2019-06-10T08:24:24.151Z,5.03
2019-06-10T08:26:53.623Z,5.30
2019-06-10T08:29:23.492Z,5.05
2019-06-10T08:31:53.891Z,5.85
2019-06-10T08:34:24.552Z,6.42
2019-06-10T08:36:54.624Z,5.92
2019-06-10T08:39:24.461Z,5.17
2019-06-10T08:41:54.026Z,5.00
2019-06-10T08:44:23.396Z,5.20
2019-06-10T08:46:52.751Z,4.85
2019-06-10T08:49:23.819Z,4.95
2019-06-10T08:51:55.173Z,6.28
2019-06-10T08:54:25.474Z,4.85
2019-06-10T08:56:54.849Z,6.28
2019-06-10T08:59:24.482Z,6.00
2019-06-10T09:01:56.790Z,8.60
2019-06-10T09:04:29.436Z,5.42
2019-06-10T09:06:58.361Z,6.35
2019-06-10T09:09:27.740Z,7.05
2019-06-10T09:11:57.379Z,7.92
2019-06-10T09:14:26.779Z,6.53
2019-06-10T09:16:56.214Z,8.80
2019-06-10T09:19:25.617Z,6.72
2019-06-10T09:21:56.485Z,4.95
2019-06-10T09:24:26.295Z,4.72
2019-06-10T09:26:56.628Z,4.83
2019-06-10T09:29:26.906Z,5.30
2019-06-10T09:31:56.374Z,5.15
2019-06-10T09:34:25.781Z,4.70
2019-06-10T09:36:56.953Z,7.87
2019-06-10T09:39:26.476Z,4.97
2019-06-10T09:42:01.474Z,5.20
2019-06-10T09:44:27.153Z,4.72
2019-06-10T09:47:00.426Z,5.00
2019-06-10T09:49:32.817Z,5.60
2019-06-10T09:52:03.555Z,4.72
2019-06-10T09:54:34.406Z,4.50
2019-06-10T09:57:05.213Z,5.25
2019-06-10T09:59:36.363Z,4.65
2019-06-10T10:02:07.394Z,6.10
2019-06-10T10:04:38.439Z,4.55
2019-06-10T10:07:09.313Z,5.45
2019-06-10T10:09:44.340Z,5.90
2019-06-10T10:12:12.204Z,5.57
2019-06-10T10:14:46.051Z,5.70
2019-06-10T10:17:15.147Z,6.00
2019-06-10T10:19:47.835Z,6.70
2019-06-10T10:22:15.957Z,7.20
2019-06-10T10:24:47.572Z,6.42
2019-06-10T10:27:18.030Z,5.80
2019-06-10T10:29:50.019Z,5.97
2019-06-10T10:32:22.587Z,7.00
2019-06-10T10:34:56.361Z,6.00
2019-06-10T10:37:24.653Z,5.95
2019-06-10T10:39:56.586Z,6.05
2019-06-10T10:42:39.119Z,6.47
2019-06-10T10:44:59.208Z,5.47
2019-06-10T10:47:33.539Z,6.00
2019-06-10T10:50:02.903Z,6.50
2019-06-10T10:52:38.581Z,5.67
2019-06-10T10:55:17.132Z,5.90
2019-06-10T10:57:52.839Z,6.22
2019-06-10T11:00:23.827Z,6.50
2019-06-10T11:02:57.870Z,5.72
2019-06-10T11:06:23.671Z,5.37
2019-06-10T11:20:25.087Z,5.67
2019-06-10T11:23:02.933Z,5.83
2019-06-10T11:25:59.471Z,5.65
2019-06-10T11:28:43.486Z,6.08
2019-06-10T11:31:14.162Z,6.03
2019-06-10T11:33:48.871Z,5.62
2019-06-10T11:36:22.767Z,5.87
2019-06-10T11:38:58.745Z,5.80
2019-06-10T11:41:32.294Z,5.42
2019-06-10T11:44:05.461Z,5.55
2019-06-10T11:47:03.210Z,5.90
2019-06-10T11:49:38.000Z,5.75
2019-06-10T11:52:12.710Z,6.10
2019-06-10T11:54:55.624Z,5.22
2019-06-10T11:57:24.062Z,6.10
2019-06-10T12:00:13.454Z,6.33
2019-06-10T12:02:34.435Z,7.00
2019-06-10T12:05:04.924Z,6.87
2019-06-10T12:07:35.671Z,6.70
2019-06-10T12:10:06.450Z,6.40
2019-06-10T12:12:36.634Z,6.47
2019-06-10T12:15:07.687Z,7.20
2019-06-10T12:17:49.844Z,7.10
2019-06-10T12:20:08.726Z,6.13
2019-06-10T12:22:38.174Z,7.33
2019-06-10T12:25:28.367Z,6.30
2019-06-10T12:27:39.540Z,6.73
2019-06-10T12:30:09.374Z,8.00
2019-06-10T12:32:42.413Z,6.07
2019-06-10T12:35:13.734Z,7.37
2019-06-10T12:37:43.432Z,6.67
2019-06-10T12:40:15.338Z,6.30
2019-06-10T12:42:45.669Z,5.53
2019-06-10T12:45:15.691Z,6.00
2019-06-10T12:47:45.093Z,6.07
2019-06-10T12:50:15.506Z,5.90
2019-06-10T12:52:45.374Z,6.20
2019-06-10T12:55:14.977Z,6.90
2019-06-10T12:57:44.400Z,6.30
2019-06-10T13:00:20.658Z,6.55
2019-06-10T13:02:47.346Z,6.22
2019-06-10T13:05:17.884Z,6.25
2019-06-10T13:07:48.360Z,5.65
2019-06-10T13:10:34.877Z,6.10
2019-06-10T13:13:07.193Z,6.25
2019-06-10T13:15:35.688Z,6.78
2019-06-10T13:18:07.730Z,6.17
2019-06-10T13:20:37.299Z,6.50
2019-06-10T13:23:17.291Z,6.05
2019-06-10T13:25:50.462Z,6.37
2019-06-10T13:28:09.502Z,5.97
2019-06-10T13:30:38.912Z,5.67
2019-06-10T13:33:11.299Z,6.40
2019-06-10T13:35:39.424Z,7.30
2019-06-10T13:38:08.872Z,5.58
2019-06-10T13:40:38.268Z,6.25
2019-06-10T13:43:08.129Z,6.78
2019-06-10T13:45:37.495Z,7.50
2019-06-10T13:48:10.185Z,6.22
2019-06-10T13:50:38.330Z,6.87
2019-06-10T13:53:08.525Z,6.93
2019-06-10T13:55:38.890Z,6.37
2019-06-10T13:58:10.377Z,6.40
2019-06-10T14:00:42.730Z,5.47
2019-06-10T14:03:15.816Z,6.70
2019-06-10T14:05:44.741Z,6.00
2019-06-10T14:08:15.310Z,5.87
2019-06-10T14:10:44.354Z,5.57
2019-06-10T14:13:15.391Z,4.43
2019-06-10T14:15:45.143Z,6.10
2019-06-10T14:18:15.361Z,9.50
2019-06-10T14:20:45.374Z,6.13
2019-06-10T14:23:17.453Z,5.67
2019-06-10T14:25:45.794Z,5.33
2019-06-10T14:28:34.952Z,5.10
2019-06-10T14:30:46.352Z,5.93
2019-06-10T14:33:16.735Z,5.47
2019-06-10T14:35:46.119Z,6.53
2019-06-10T14:38:15.882Z,5.20
2019-06-10T14:40:45.311Z,5.93
2019-06-10T14:43:16.239Z,6.83
2019-06-10T14:45:45.803Z,5.30
2019-06-10T14:48:17.245Z,5.87
2019-06-10T14:50:46.187Z,5.70
2019-06-10T14:53:16.899Z,6.80
2019-06-10T14:55:46.428Z,4.90
2019-06-10T14:58:18.961Z,5.70
2019-06-10T15:00:46.879Z,5.10
2019-06-10T15:03:19.893Z,5.30
2019-06-10T15:05:47.788Z,5.47
2019-06-10T15:08:17.382Z,6.63
2019-06-10T15:10:46.705Z,9.73
2019-06-10T15:13:16.199Z,7.00
2019-06-10T15:15:45.701Z,7.90
2019-06-10T15:18:17.969Z,6.93
2019-06-10T15:20:46.217Z,6.27
2019-06-10T15:23:18.660Z,5.70
2019-06-10T15:25:52.333Z,5.77
2019-06-10T15:28:17.781Z,5.90
2019-06-10T15:30:47.413Z,7.07
2019-06-10T15:33:18.183Z,6.23
2019-06-10T15:35:47.967Z,14.87
2019-06-10T15:38:18.825Z,7.17
2019-06-10T15:40:48.900Z,6.00
2019-06-10T15:43:18.261Z,6.67
2019-06-10T15:45:47.968Z,5.93
2019-06-10T15:48:18.843Z,7.30
2019-06-10T15:50:49.066Z,7.93
2019-06-10T15:53:20.490Z,5.77
2019-06-10T15:56:12.173Z,7.27
2019-06-10T15:58:23.560Z,6.30
2019-06-10T16:00:53.331Z,11.37
2019-06-10T16:03:25.489Z,7.03
2019-06-10T16:05:54.056Z,6.53
2019-06-10T16:08:23.433Z,6.80
2019-06-10T16:10:52.906Z,9.13
2019-06-10T16:13:25.588Z,7.70
2019-06-10T16:15:53.574Z,8.50
2019-06-10T16:18:25.987Z,7.30
2019-06-10T16:20:54.313Z,9.33
2019-06-10T16:23:26.523Z,7.50
2019-06-10T16:25:54.699Z,7.53
2019-06-10T16:28:26.441Z,11.27
2019-06-10T16:30:56.427Z,7.37
2019-06-10T16:33:27.697Z,9.33
2019-06-10T16:35:56.950Z,7.50
2019-06-10T16:38:27.283Z,7.60
2019-06-10T16:40:56.816Z,7.37
2019-06-10T16:43:27.707Z,8.13
2019-06-10T16:45:57.206Z,9.10
2019-06-10T16:48:27.451Z,8.90
2019-06-10T16:50:56.772Z,7.50
2019-06-10T16:53:30.548Z,7.13
2019-06-10T16:55:59.002Z,6.77
2019-06-10T16:58:30.332Z,7.50
2019-06-10T17:01:03.190Z,8.90
2019-06-10T17:03:33.851Z,8.37
2019-06-10T17:06:03.819Z,8.70
2019-06-10T17:08:33.726Z,7.93
2019-06-10T17:11:03.828Z,7.23
2019-06-10T17:13:33.252Z,6.60
2019-06-10T17:16:03.631Z,6.83
2019-06-10T17:18:34.074Z,6.93
2019-06-10T17:21:04.162Z,7.00
2019-06-10T17:23:36.470Z,7.00
2019-06-10T17:26:06.661Z,7.23
2019-06-10T17:28:37.024Z,6.80
2019-06-10T17:31:06.626Z,7.87
2019-06-10T17:33:36.245Z,7.93
2019-06-10T17:36:05.717Z,7.73
2019-06-10T17:38:36.000Z,7.07
2019-06-10T17:41:05.547Z,7.77
2019-06-10T17:43:35.338Z,6.87
2019-06-10T17:46:04.835Z,7.43
2019-06-10T17:48:34.215Z,7.43
2019-06-10T17:51:03.855Z,7.83
2019-06-10T17:53:34.986Z,7.57
2019-06-10T17:56:04.639Z,8.23
2019-06-10T17:58:49.966Z,8.90
2019-06-10T18:01:05.245Z,9.77
2019-06-10T18:03:36.766Z,11.17
2019-06-10T18:06:07.602Z,9.90
2019-06-10T18:08:40.558Z,8.23
2019-06-10T18:11:08.296Z,8.23
2019-06-10T18:13:37.750Z,8.20
2019-06-10T18:16:07.220Z,8.07
2019-06-10T18:18:37.372Z,8.87
2019-06-10T18:21:06.826Z,8.80
2019-06-10T18:23:37.940Z,10.43
2019-06-10T18:26:07.343Z,9.60
2019-06-10T18:28:59.783Z,9.60
2019-06-10T18:31:08.277Z,8.80
2019-06-10T18:33:38.860Z,9.90
2019-06-10T18:36:08.714Z,9.07
2019-06-10T18:38:39.746Z,8.73
2019-06-10T18:41:10.092Z,9.57
2019-06-10T18:43:41.561Z,10.53
2019-06-10T18:46:12.663Z,10.20
2019-06-10T18:48:43.467Z,11.40
2019-06-10T18:51:12.974Z,11.47
2019-06-10T18:53:43.030Z,10.63
2019-06-10T18:56:13.295Z,10.20
2019-06-10T18:58:42.811Z,9.37
2019-06-10T19:01:22.748Z,9.53
2019-06-10T19:03:52.581Z,9.60
2019-06-10T19:06:22.929Z,9.23
2019-06-10T19:08:53.054Z,10.07
2019-06-10T19:11:23.720Z,9.43
2019-06-10T19:13:53.247Z,9.90
2019-06-10T19:16:23.461Z,14.50
2019-06-10T19:18:54.251Z,10.30
2019-06-10T19:21:25.532Z,10.47
2019-06-10T19:23:57.110Z,9.83
2019-06-10T19:26:31.011Z,9.40
2019-06-10T19:29:03.558Z,9.70
2019-06-10T19:31:36.054Z,10.60
2019-06-10T19:34:03.668Z,9.27
2019-06-10T19:36:33.657Z,10.00
2019-06-10T19:39:05.285Z,9.57
2019-06-10T19:41:38.123Z,9.60
2019-06-10T19:44:06.390Z,9.87
2019-06-10T19:46:35.868Z,9.17
2019-06-10T19:49:07.417Z,10.07
2019-06-10T19:51:38.916Z,9.07
2019-06-10T19:54:12.810Z,10.30
2019-06-10T19:56:43.793Z,10.47
2019-06-10T19:59:14.211Z,9.60
2019-06-10T20:01:46.727Z,8.37
2019-06-10T20:04:18.240Z,8.80
2019-06-10T20:06:50.598Z,8.33
2019-06-10T20:09:19.470Z,8.00
2019-06-10T20:11:49.732Z,7.60
2019-06-10T20:14:20.797Z,8.33
2019-06-10T20:16:52.670Z,4.77
2019-06-10T20:19:24.127Z,4.40
2019-06-10T20:21:54.349Z,4.50
2019-06-10T20:24:23.849Z,3.17
2019-06-10T20:26:54.255Z,4.13
2019-06-10T20:29:23.700Z,4.10
2019-06-10T20:31:54.341Z,4.60
2019-06-10T20:34:25.745Z,3.80
2019-06-10T20:36:55.842Z,3.10
2019-06-10T20:39:29.406Z,3.50
2019-06-10T20:41:59.437Z,3.27
2019-06-10T20:44:28.843Z,3.10
2019-06-10T20:46:58.832Z,3.40
2019-06-10T20:49:29.022Z,3.87
2019-06-10T20:52:09.968Z,3.67
2019-06-10T20:54:32.144Z,3.97
2019-06-10T20:57:01.135Z,3.67
2019-06-10T20:59:33.238Z,4.43
2019-06-10T21:02:03.370Z,5.20
2019-06-10T21:04:34.290Z,5.40
2019-06-10T21:07:04.415Z,5.47
2019-06-10T21:09:35.050Z,5.67
2019-06-10T21:12:05.335Z,5.27
2019-06-10T21:14:35.613Z,5.07
2019-06-10T21:17:04.999Z,4.70
2019-06-10T21:19:34.495Z,4.50
2019-06-10T21:22:05.251Z,5.20
2019-06-10T21:24:36.142Z,5.13
2019-06-10T21:27:05.652Z,4.97
2019-06-10T21:29:35.037Z,4.83
2019-06-10T21:32:05.603Z,5.33
2019-06-10T21:34:35.400Z,5.27
2019-06-10T21:37:07.007Z,5.10
2019-06-10T21:39:37.357Z,5.53
2019-06-10T21:42:07.511Z,5.40
2019-06-10T21:44:38.698Z,5.03
2019-06-10T21:47:08.222Z,4.90
2019-06-10T21:49:37.640Z,5.10
2019-06-10T21:52:07.088Z,5.00
2019-06-10T21:54:37.303Z,4.70
2019-06-10T21:57:06.789Z,4.30
2019-06-10T21:59:36.290Z,4.50
2019-06-10T22:02:06.802Z,4.67
2019-06-10T22:04:36.704Z,4.50
2019-06-10T22:07:06.756Z,4.30
2019-06-10T22:09:36.288Z,4.80
2019-06-10T22:12:05.875Z,4.57
2019-06-10T22:14:35.480Z,4.90
2019-06-10T22:17:05.053Z,4.60
2019-06-10T22:19:35.422Z,5.30
2019-06-10T22:22:04.837Z,5.20
2019-06-10T22:24:34.398Z,4.87
2019-06-10T22:27:03.966Z,4.60
2019-06-10T22:29:33.496Z,4.60
2019-06-10T22:32:04.195Z,4.97
2019-06-10T22:34:33.720Z,5.20
2019-06-10T22:37:03.354Z,4.77
2019-06-10T22:39:32.879Z,4.87
2019-06-10T22:42:03.108Z,5.23
2019-06-10T22:44:33.263Z,5.23
2019-06-10T22:47:03.691Z,5.20
2019-06-10T22:50:32.251Z,5.00
2019-06-10T23:08:46.716Z,5.73
2019-06-10T23:15:13.988Z,5.40
2019-06-10T23:17:55.406Z,5.50
2019-06-10T23:20:24.711Z,5.20
2019-06-10T23:22:57.148Z,5.10
2019-06-10T23:25:26.563Z,5.10
2019-06-10T23:28:03.830Z,5.63
2019-06-10T23:30:33.470Z,5.33
2019-06-10T23:33:03.258Z,5.77
2019-06-10T23:35:32.954Z,5.13
2019-06-10T23:38:04.982Z,5.40
2019-06-10T23:40:33.730Z,5.30
2019-06-10T23:43:03.890Z,5.60
2019-06-10T23:45:33.374Z,5.70
2019-06-10T23:48:04.852Z,5.67
2019-06-10T23:50:33.820Z,6.30
2019-06-10T23:53:07.524Z,6.00
2019-06-10T23:55:34.216Z,5.97
2019-06-10T23:58:03.561Z,5.93
